Weather observations for the past three days for
Enid, Enid Woodring Regional Airport
Imperial (Metric)
Date Time (cdt) Wind (mph) Vis. (mi.) Weather Sky Cond. Temperature (ºF) Relative Humidity Wind Chill (°F) Heat Index (°F) Pressure Precipitation (in)
Air Dwpt 6 hour altimeter (in) sea level (mb) 1 hr 3 hr 6 hr
Max. Min.
07 06:50 Calm 10.00 Partly Cloudy SCT120 42.8 42.8 100% 30.1 0.0
07 05:55 NW 3 10.00 Fair CLR 42.8 41 93% 30.09 0.0
07 05:35 Calm 10.00 Partly Cloudy SCT075 46.4 41 82% 30.09 0.0
07 05:15 Calm 10.00 Mostly Cloudy BKN075 46.4 42.8 87% 30.09 0.0
07 04:55 Calm 10.00 Overcast OVC075 48.2 42.8 82% 30.09 0.0
07 04:35 Calm 10.00 Overcast OVC075 46.4 42.8 87% 30.09 0.0
07 04:15 Calm 10.00 Mostly Cloudy BKN075 44.6 41 87% 30.1 0.0
07 03:55 NW 5 10.00 Partly Cloudy SCT075 42.8 41 93% 41 30.1 0.0
07 03:35 Calm 10.00 Partly Cloudy SCT085 44.6 41 87% 30.1 0.0
07 03:15 Calm 10.00 Overcast OVC085 46.4 41 82% 30.1 0.0
07 02:55 Calm 10.00 Mostly Cloudy BKN095 44.6 41 87% 30.1 0.0
07 02:35 NW 5 10.00 Partly Cloudy SCT070 SCT095 44.6 41 87% 43 30.11 0.0
07 02:15 N 6 10.00 Mostly Cloudy BKN070 46.4 41 82% 44 30.11 0.0
07 01:55 NW 7 10.00 Partly Cloudy SCT070 44.6 41 87% 41 30.13 0.0
07 01:35 N 6 10.00 Fair CLR 42.8 41 93% 40 30.1 0.0
07 01:15 Calm 10.00 Fair CLR 44.6 41 87% 30.11 0.0
07 00:55 Calm 10.00 Fair CLR 46.4 42.8 87% 30.1 0.0
07 00:35 Calm 10.00 Mostly Cloudy BKN075 50 42.8 76% 30.11 0.0
07 00:15 Calm 10.00 Overcast OVC075 50 44.6 82% 30.12 0.0
06 23:55 Calm 10.00 Overcast OVC075 50 44.6 82% 30.12 0.0
06 23:35 Calm 10.00 Overcast OVC075 50 42.8 76% 30.11 0.0
06 23:15 N 5 10.00 Overcast OVC075 50 42.8 76% 49 30.09 0.0
06 22:55 NE 6 10.00 Overcast OVC075 51.8 42.8 72% 30.09 0.0
06 22:35 NE 6 10.00 Overcast OVC075 53.6 42.8 67% 30.08 0.0
06 22:15 NE 3 10.00 Overcast OVC075 55.4 42.8 63% 30.09 0.0
06 21:55 NE 5 10.00 Overcast OVC075 55.4 41 59% 30.08 0.0
06 21:35 E 6 10.00 Overcast OVC075 55.4 41 59% 30.07 0.0
06 21:15 NE 3 10.00 Overcast OVC075 55.4 42.8 63% 30.06 0.0
06 20:45 NE 5 10.00 Overcast OVC075 57.2 42.8 59% 30.06 0.0
06 19:50 NE 7 10.00 Overcast OVC065 59 37.4 45% 30.05 0.0
06 18:55 NE 7 10.00 Overcast OVC065 60.8 37.4 42% 30.05 0.0
06 17:45 NE 13 10.00 Overcast OVC055 64.4 39.2 40% 30.02 0.0
06 16:45 NE 13 G 22 10.00 Mostly Cloudy BKN055 64.4 39.2 40% 30.02 0.0
06 15:45 NE 12 G 25 10.00 Overcast OVC055 62.6 37.4 39% 30.03 0.0
06 14:45 NE 13 10.00 Mostly Cloudy BKN055 BKN070 64.4 41 43% 30.04 0.0
06 13:50 NE 13 10.00 Overcast BKN055 OVC070 62.6 39.2 42% 30.06 0.0
06 12:50 NE 15 G 22 10.00 Mostly Cloudy BKN055 62.6 39.2 42% 30.07 0.0
06 11:50 E 16 10.00 Mostly Cloudy BKN055 60.8 37.4 42% 30.08 0.0
06 10:50 NE 13 G 24 10.00 Mostly Cloudy BKN055 57.2 37.4 48% 30.07 0.0
06 09:50 NE 12 10.00 Mostly Cloudy BKN055 55.4 42.8 63% 30.07 0.0
06 08:50 NE 14 G 20 10.00 Partly Cloudy SCT055 SCT080 53.6 42.8 67% 30.06 0.0
06 07:50 NE 9 10.00 Overcast BKN055 OVC065 48.2 41 76% 45 30.06 0.0
06 06:55 NE 9 10.00 Overcast SCT055 OVC065 48.2 41 76% 45 30.04 0.0
06 05:55 NE 16 G 22 10.00 Overcast OVC060 48.2 41 76% 43 30.02 0.0
06 05:35 NE 15 G 20 10.00 Overcast OVC060 48.2 41 76% 43 30 0.0
06 05:15 N 13 G 18 10.00 Overcast OVC060 48.2 42.8 82% 43 30.02 0.0
06 04:55 N 15 G 20 10.00 Overcast OVC060 48.2 42.8 82% 43 30 0.0
06 04:35 N 9 10.00 Mostly Cloudy BKN060 48.2 42.8 82% 45 29.99 0.0
06 04:15 NE 12 10.00 Mostly Cloudy BKN060 50 41 71% 46 29.97 0.0
06 03:55 N 13 10.00 Overcast OVC060 50 44.6 82% 46 29.96 0.0
06 03:35 N 12 10.00 Overcast OVC050 50 44.6 82% 46 29.97 0.0
06 03:15 N 8 10.00 Overcast OVC050 50 44.6 82% 47 29.98 0.0
06 02:55 N 8 10.00 Overcast OVC050 50 44.6 82% 47 29.97 0.0
06 02:35 N 8 10.00 Overcast OVC050 50 44.6 82% 47 29.97 0.0
06 02:15 N 7 10.00 Overcast OVC050 48.2 44.6 87% 46 29.95 0.0
06 01:55 NE 3 10.00 Overcast OVC050 50 44.6 82% 29.95 0.0
06 01:35 NE 7 10.00 Overcast OVC048 50 44.6 82% 48 29.94 0.0
06 01:15 NE 6 10.00 Overcast OVC048 50 42.8 76% 48 29.94 0.0
06 00:55 NE 5 10.00 Overcast OVC048 50 42.8 76% 49 29.94 0.0
06 00:35 NE 7 10.00 Overcast OVC048 50 42.8 76% 48 29.94 0.0
06 00:15 NE 8 10.00 Overcast OVC046 50 42.8 76% 47 29.94 0.0
05 23:55 NE 8 10.00 Overcast OVC046 50 42.8 76% 47 29.93 0.0
05 23:35 NE 9 10.00 Overcast OVC046 50 42.8 76% 47 29.93 0.0
05 23:15 NE 13 10.00 Overcast OVC046 50 42.8 76% 46 29.92 0.0
05 22:55 NE 12 10.00 Overcast OVC044 50 41 71% 46 29.93 0.0
05 22:35 NE 13 10.00 Overcast OVC044 50 41 71% 46 29.93 0.0
05 22:15 NE 14 10.00 Overcast OVC044 50 41 71% 45 29.94 0.0
05 21:55 NE 12 10.00 Overcast OVC042 50 41 71% 46 29.93 0.0
05 21:35 NE 12 10.00 Overcast OVC042 50 41 71% 46 29.93 0.0
05 21:15 NE 6 10.00 Overcast OVC040 50 42.8 76% 48 29.92 0.0
05 20:50 NE 10 10.00 Overcast OVC038 50 42.8 76% 46 29.91 0.0
05 19:50 NE 15 10.00 Overcast OVC025 51.8 44.6 77% 29.87 0.0
05 18:50 NE 17 10.00 Overcast OVC029 51.8 44.6 77% 29.86 0.0
05 17:55 N 17 10.00 Overcast OVC033 53.6 44.6 72% 29.85 0.0
05 16:50 NE 14 10.00 Overcast OVC033 53.6 44.6 72% 29.83 0.0
05 15:50 NE 20 G 32 10.00 Overcast OVC027 53.6 44.6 72% 29.84 0.0
05 14:50 NE 26 G 32 10.00 Overcast and Windy OVC027 53.6 44.6 72% 29.83 0.0
05 13:45 NE 23 G 35 10.00 Overcast and Breezy OVC027 53.6 42.8 67% 29.82 0.0
05 12:45 NE 30 G 41 10.00 Overcast and Windy OVC023 51.8 42.8 72% 29.81 0.0
05 11:45 N 26 G 36 7.00 Overcast and Windy OVC017 51.8 46.4 82% 29.79 0.0
05 10:45 N 29 G 37 10.00 Overcast and Windy OVC017 53.6 46.4 77% 29.75 0.0
05 09:45 N 29 G 39 10.00 Overcast and Windy OVC019 55.4 46.4 72% 29.72 0.0
05 08:45 N 25 G 35 10.00 Overcast and Breezy OVC019 55.4 48.2 77% 29.69 0.0
05 07:45 N 25 G 33 10.00 Overcast and Breezy OVC015 57.2 51.8 82% 29.66 0.0
05 06:45 NE 17 G 31 10.00 Mostly Cloudy BKN020 BKN033 BKN040 64.4 59 83% 29.59 0.0
05 05:55 E 18 G 25 10.00 Overcast OVC031 64.4 60.8 88% 29.56 0.0
05 05:35 NE 17 G 23 10.00 Partly Cloudy SCT031 62.6 60.8 94% 29.55 0.0
05 05:15 NE 17 10.00 Partly Cloudy SCT031 62.6 62.6 100% 29.55 0.0
05 04:55 NE 14 10.00 Fair CLR 62.6 62.6 100% 29.54 0.0
05 04:35 NE 13 10.00 Fair CLR 64.4 62.6 94% 29.53 0.0
05 04:15 NE 13 10.00 Fair CLR 64.4 64.4 100% 29.52 0.0
05 03:55 NE 9 10.00 Fair CLR 64.4 62.6 94% 29.52 0.0
05 03:35 E 8 10.00 Fair CLR 64.4 64.4 100% 29.49 0.0
05 03:15 E 9 10.00 Fair CLR 66.2 64.4 94% 29.5 0.0
05 02:55 SE 7 10.00 Fair CLR 66.2 64.4 94% 29.5 0.0
05 02:35 SE 8 10.00 Fair CLR 66.2 64.4 94% 29.5 0.0
05 02:15 E 8 10.00 Fair CLR 64.4 62.6 94% 29.51 0.0
05 01:55 SE 6 10.00 Fair CLR 66.2 64.4 94% 29.51 0.0
05 01:35 S 8 10.00 Fair CLR 68 64.4 88% 29.52 0.0
05 01:15 S 9 10.00 Fair CLR 69.8 64.4 83% 29.52 0.0
05 00:55 S 10 10.00 Fair CLR 69.8 64.4 83% 29.52 0.0
05 00:35 S 12 10.00 Fair CLR 69.8 64.4 83% 29.52 0.0
05 00:15 S 13 10.00 Fair CLR 71.6 64.4 78% 29.53 0.0
04 23:55 S 12 10.00 Fair CLR 69.8 64.4 83% 29.53 0.0
04 23:35 S 10 10.00 Fair CLR 69.8 64.4 83% 29.54 0.0
04 23:15 S 10 10.00 Fair CLR 69.8 64.4 83% 29.54 0.0
04 22:55 S 8 10.00 Fair CLR 69.8 62.6 78% 29.54 0.0
04 22:35 SE 10 10.00 Fair CLR 69.8 62.6 78% 29.54 0.0
04 22:15 SE 9 10.00 Fair CLR 69.8 62.6 78% 29.54 0.0
04 21:55 SE 8 10.00 Fair CLR 69.8 62.6 78% 29.54 0.0
04 21:35 SE 8 10.00 Fair CLR 71.6 62.6 73% 29.53 0.0
04 21:15 SE 7 10.00 Fair CLR 71.6 62.6 73% 29.53 0.0
04 20:50 SE 12 10.00 Mostly Cloudy BKN120 73.4 64.4 74% 29.53 0.0
04 19:54 SE 12 10.00 Mostly Cloudy BKN150 75.2 62.6 65% 77 29.53 0.0
04 18:50 SE 14 10.00 Mostly Cloudy BKN150 78.8 62.6 58% 80 29.54 0.0
04 17:50 S 18 G 25 10.00 Mostly Cloudy BKN150 82.4 59 45% 82 29.56 0.0
04 16:55 S 21 G 26 10.00 Overcast and Breezy OVC150 82.4 59 45% 82 29.57 0.0
04 15:50 S 21 G 29 10.00 Overcast and Breezy OVC150 82.4 57.2 42% 82 29.59 0.0
04 14:55 S 23 G 31 10.00 Mostly Cloudy and Breezy BKN160 82.4 57.2 42% 82 29.61 0.0
04 13:45 S 24 G 29 10.00 Mostly Cloudy and Breezy BKN160 80.6 55.4 42% 81 29.64 0.0
04 12:45 S 22 G 29 10.00 Mostly Cloudy and Breezy BKN160 78.8 55.4 45% 79 29.66 0.0
04 11:45 S 23 G 30 10.00 Mostly Cloudy and Breezy BKN160 77 53.6 44% 78 29.67 0.0
04 10:45 S 22 G 29 10.00 Mostly Cloudy and Breezy BKN160 75.2 53.6 47% 78 29.69 0.0
04 09:45 S 20 G 26 10.00 Fair CLR 71.6 51.8 50% 29.7 0.0
04 08:45 S 21 G 26 10.00 Fair and Breezy CLR 66.2 50 56% 29.72 0.0
04 07:45 S 9 10.00 Fair CLR 60.8 48.2 63% 29.72 0.0
Date Time (cdt) Wind (mph) Vis. (mi.) Weather Sky Cond. Air Dwpt Max. Min. Relative Humidity Wind Chill (°F) Heat Index (°F) altimeter (in) sea level (mb) 1 hr 3 hr 6 hr
6 hour
Temperature (ºF) Pressure Precipitation (in)